createdAt,value
2023-04-11T00:00:46.952Z,961.54
2023-04-11T00:01:47.004Z,961.64
2023-04-11T00:02:47.191Z,961.53
2023-04-11T00:03:47.060Z,961.43
2023-04-11T00:04:47.000Z,961.54
2023-04-11T00:05:46.883Z,961.57
2023-04-11T00:06:46.903Z,961.61
2023-04-11T00:07:46.863Z,961.65
2023-04-11T00:08:46.881Z,961.53
2023-04-11T00:09:46.846Z,961.44
2023-04-11T00:10:46.832Z,961.47
2023-04-11T00:11:46.819Z,961.42
2023-04-11T00:12:46.823Z,961.54
2023-04-11T00:13:46.803Z,961.55
2023-04-11T00:14:46.760Z,961.55
2023-04-11T00:15:46.775Z,961.55
2023-04-11T00:16:46.812Z,961.57
2023-04-11T00:17:46.772Z,961.51
2023-04-11T00:18:46.761Z,961.43
2023-04-11T00:19:46.748Z,961.43
2023-04-11T00:20:46.730Z,961.37
2023-04-11T00:21:46.713Z,961.31
2023-04-11T00:22:46.699Z,961.27
2023-04-11T00:23:46.686Z,961.22
2023-04-11T00:24:46.676Z,961.07
2023-04-11T00:25:46.688Z,961.01
2023-04-11T00:26:46.630Z,961.19
2023-04-11T00:27:46.616Z,961.05
2023-04-11T00:28:46.605Z,960.91
2023-04-11T00:29:46.592Z,960.93
2023-04-11T00:30:46.611Z,961.01
2023-04-11T00:31:46.632Z,960.96
2023-04-11T00:32:46.666Z,960.85
2023-04-11T00:33:46.592Z,960.80
2023-04-11T00:34:46.561Z,960.78
2023-04-11T00:35:46.553Z,960.74
2023-04-11T00:36:46.570Z,960.86
2023-04-11T00:37:46.521Z,960.92
2023-04-11T00:38:46.537Z,961.03
2023-04-11T00:39:46.503Z,961.04
2023-04-11T00:40:46.479Z,961.02
2023-04-11T00:41:46.464Z,960.98
2023-04-11T00:42:46.496Z,960.98
2023-04-11T00:43:46.473Z,961.09
2023-04-11T00:44:46.468Z,960.99
2023-04-11T00:45:46.523Z,960.87
2023-04-11T00:46:46.435Z,960.89
2023-04-11T00:47:46.525Z,960.76
2023-04-11T00:48:46.416Z,960.73
2023-04-11T00:49:46.401Z,960.72
2023-04-11T00:50:46.404Z,960.52
2023-04-11T00:51:46.368Z,960.62
2023-04-11T00:52:46.388Z,960.49
2023-04-11T00:53:46.355Z,960.52
2023-04-11T00:54:46.316Z,960.71
2023-04-11T00:55:46.344Z,960.73
2023-04-11T00:56:46.294Z,960.58
2023-04-11T00:57:46.306Z,960.80
2023-04-11T00:58:46.284Z,960.86
2023-04-11T00:59:46.292Z,960.86
2023-04-11T01:00:46.269Z,960.86
2023-04-11T01:01:46.300Z,960.99
2023-04-11T01:02:46.360Z,960.96
2023-04-11T01:03:46.351Z,961.02
2023-04-11T01:04:46.246Z,960.87
2023-04-11T01:05:46.232Z,960.85
2023-04-11T01:06:46.208Z,960.85
2023-04-11T01:07:46.193Z,960.97
2023-04-11T01:08:46.190Z,961.09
2023-04-11T01:09:46.169Z,961.13
2023-04-11T01:10:46.175Z,961.23
2023-04-11T01:11:46.180Z,961.25
2023-04-11T01:12:46.162Z,961.43
2023-04-11T01:13:46.126Z,961.19
2023-04-11T01:14:46.127Z,961.41
2023-04-11T01:15:46.114Z,961.39
2023-04-11T01:16:46.166Z,961.37
2023-04-11T01:17:46.116Z,961.35
2023-04-11T01:18:46.085Z,961.40
2023-04-11T01:19:46.065Z,961.28
2023-04-11T01:20:46.033Z,961.35
2023-04-11T01:21:46.066Z,961.12
2023-04-11T01:22:46.041Z,961.20
2023-04-11T01:23:46.012Z,961.21
2023-04-11T01:24:46.029Z,961.22
2023-04-11T01:25:45.969Z,961.27
2023-04-11T01:26:46.015Z,961.21
2023-04-11T01:27:45.955Z,961.29
2023-04-11T01:28:45.984Z,961.31
2023-04-11T01:29:45.955Z,961.26
2023-04-11T01:30:45.989Z,961.18
2023-04-11T01:31:45.945Z,961.29
2023-04-11T01:32:45.959Z,961.46
2023-04-11T01:33:45.962Z,961.32
2023-04-11T01:34:45.908Z,961.26
2023-04-11T01:35:45.895Z,961.32
2023-04-11T01:36:45.854Z,961.25
2023-04-11T01:37:45.877Z,961.28
2023-04-11T01:38:45.850Z,961.39
2023-04-11T01:39:45.844Z,961.29
2023-04-11T01:40:45.836Z,961.30
2023-04-11T01:41:45.825Z,961.25
2023-04-11T01:42:45.810Z,961.35
2023-04-11T01:43:45.810Z,961.34
2023-04-11T01:44:45.793Z,961.47
2023-04-11T01:45:45.778Z,961.50
2023-04-11T01:46:45.779Z,961.51
2023-04-11T01:47:45.872Z,961.56
2023-04-11T01:48:46.029Z,961.54
2023-04-11T01:49:45.731Z,961.68
2023-04-11T01:50:45.697Z,961.47
2023-04-11T01:51:45.725Z,961.37
2023-04-11T01:52:45.684Z,961.50
2023-04-11T01:53:45.662Z,961.37
2023-04-11T01:54:45.690Z,961.48
2023-04-11T01:55:45.629Z,961.48
2023-04-11T01:56:45.678Z,961.51
2023-04-11T01:57:45.631Z,961.50
2023-04-11T01:58:45.643Z,961.59
2023-04-11T01:59:45.621Z,961.59
2023-04-11T02:00:45.640Z,961.76
2023-04-11T02:01:45.654Z,961.63
2023-04-11T02:02:45.665Z,961.71
2023-04-11T02:03:45.688Z,961.67
2023-04-11T02:04:45.549Z,961.71
2023-04-11T02:05:45.554Z,961.72
2023-04-11T02:06:45.605Z,961.62
2023-04-11T02:07:45.520Z,961.79
2023-04-11T02:08:45.521Z,961.59
2023-04-11T02:09:45.513Z,961.44
2023-04-11T02:10:45.484Z,961.45
2023-04-11T02:11:45.496Z,961.50
2023-04-11T02:12:45.460Z,961.50
2023-04-11T02:13:45.460Z,961.45
2023-04-11T02:14:45.439Z,961.41
2023-04-11T02:15:45.508Z,961.51
2023-04-11T02:16:45.430Z,961.56
2023-04-11T02:17:45.719Z,961.59
2023-04-11T02:18:45.407Z,961.62
2023-04-11T02:19:45.529Z,961.62
2023-04-11T02:20:45.376Z,961.60
2023-04-11T02:21:45.368Z,961.70
2023-04-11T02:22:45.372Z,961.78
2023-04-11T02:23:45.357Z,961.73
2023-04-11T02:24:45.332Z,961.75
2023-04-11T02:25:45.327Z,961.71
2023-04-11T02:26:45.303Z,961.82
2023-04-11T02:27:45.297Z,961.62
2023-04-11T02:28:45.295Z,961.64
2023-04-11T02:29:45.304Z,961.74
2023-04-11T02:30:45.366Z,961.76
2023-04-11T02:31:45.337Z,961.57
2023-04-11T02:32:45.314Z,961.69
2023-04-11T02:33:45.244Z,961.49
2023-04-11T02:34:45.220Z,961.70
2023-04-11T02:35:45.268Z,961.86
2023-04-11T02:36:45.214Z,961.75
2023-04-11T02:37:45.190Z,961.80
2023-04-11T02:38:45.181Z,961.77
2023-04-11T02:39:45.170Z,962.08
2023-04-11T02:40:45.158Z,962.06
2023-04-11T02:41:45.154Z,961.65
2023-04-11T02:42:45.147Z,961.72
2023-04-11T02:43:45.132Z,961.82
2023-04-11T02:44:45.100Z,961.76
2023-04-11T02:45:45.118Z,961.84
2023-04-11T02:46:45.126Z,961.56
2023-04-11T02:47:45.160Z,961.70
2023-04-11T02:48:45.070Z,961.73
2023-04-11T02:49:45.027Z,961.79
2023-04-11T02:50:45.056Z,961.79
2023-04-11T02:51:45.058Z,961.72
2023-04-11T02:52:47.253Z,961.74
2023-04-11T02:53:44.992Z,961.75
2023-04-11T02:54:45.005Z,961.62
2023-04-11T02:55:44.992Z,961.58
2023-04-11T02:56:44.978Z,961.59
2023-04-11T02:57:44.967Z,961.62
2023-04-11T02:58:44.946Z,961.60
2023-04-11T02:59:44.958Z,961.60
2023-04-11T03:00:44.940Z,961.57
2023-04-11T03:01:45.040Z,961.64
2023-04-11T03:02:44.996Z,961.70
2023-04-11T03:03:45.069Z,961.65
2023-04-11T03:04:44.903Z,961.57
2023-04-11T03:05:44.896Z,961.74
2023-04-11T03:06:44.882Z,961.75
2023-04-11T03:07:44.859Z,961.78
2023-04-11T03:08:44.847Z,961.77
2023-04-11T03:09:44.833Z,961.79
2023-04-11T03:10:44.833Z,961.80
2023-04-11T03:11:47.347Z,961.75
2023-04-11T03:12:44.785Z,961.77
2023-04-11T03:13:44.812Z,961.75
2023-04-11T03:14:44.816Z,961.76
2023-04-11T03:15:44.827Z,961.81
2023-04-11T03:16:44.749Z,961.79
2023-04-11T03:17:44.786Z,961.85
2023-04-11T03:18:44.732Z,961.94
2023-04-11T03:19:44.715Z,961.89
2023-04-11T03:20:44.704Z,961.82
2023-04-11T03:21:44.700Z,961.73
2023-04-11T03:22:44.686Z,961.74
2023-04-11T03:23:44.680Z,961.69
2023-04-11T03:24:44.645Z,961.65
2023-04-11T03:25:44.736Z,961.56
2023-04-11T03:26:44.620Z,961.56
2023-04-11T03:27:44.658Z,961.54
2023-04-11T03:28:44.626Z,961.55
2023-04-11T03:29:44.617Z,961.56
2023-04-11T03:30:44.610Z,961.38
2023-04-11T03:31:44.659Z,961.47
2023-04-11T03:32:44.628Z,961.38
2023-04-11T03:33:44.581Z,961.33
2023-04-11T03:34:44.594Z,961.33
2023-04-11T03:35:44.560Z,961.40
2023-04-11T03:36:44.546Z,961.40
2023-04-11T03:37:44.547Z,961.45
2023-04-11T03:38:44.486Z,961.47
2023-04-11T03:39:44.520Z,961.50
2023-04-11T03:40:44.516Z,961.57
2023-04-11T03:41:44.486Z,961.63
2023-04-11T03:42:44.467Z,961.70
2023-04-11T03:43:44.478Z,961.60
2023-04-11T03:44:44.450Z,961.69
2023-04-11T03:45:44.418Z,961.64
2023-04-11T03:46:44.501Z,961.63
2023-04-11T03:47:44.417Z,961.65
2023-04-11T03:48:44.408Z,961.58
2023-04-11T03:49:44.380Z,961.52
2023-04-11T03:50:44.396Z,961.63
2023-04-11T03:51:44.384Z,961.63
2023-04-11T03:52:44.328Z,961.54
2023-04-11T03:53:44.340Z,961.56
2023-04-11T03:54:46.391Z,961.56
2023-04-11T03:55:44.326Z,961.69
2023-04-11T03:56:44.303Z,961.61
2023-04-11T03:57:44.321Z,961.62
2023-04-11T03:58:44.279Z,961.60
2023-04-11T03:59:44.272Z,961.56
2023-04-11T04:00:44.258Z,961.55
2023-04-11T04:01:44.287Z,961.58
2023-04-11T04:02:44.419Z,961.51
2023-04-11T04:03:44.321Z,961.45
2023-04-11T04:04:44.291Z,961.39
2023-04-11T04:05:44.190Z,961.29
2023-04-11T04:06:44.204Z,961.37
2023-04-11T04:07:44.207Z,961.46
2023-04-11T04:08:44.180Z,961.38
2023-04-11T04:09:44.170Z,961.70
2023-04-11T04:10:44.144Z,961.82
2023-04-11T04:11:44.139Z,961.94
2023-04-11T04:12:44.098Z,962.39
2023-04-11T04:13:44.085Z,962.38
2023-04-11T04:14:44.112Z,962.29
2023-04-11T04:15:44.093Z,962.36
2023-04-11T04:16:44.124Z,962.47
2023-04-11T04:17:44.106Z,962.39
2023-04-11T04:18:44.026Z,962.20
2023-04-11T04:19:44.063Z,962.20
2023-04-11T04:20:44.055Z,962.26
2023-04-11T04:21:44.046Z,962.24
2023-04-11T04:22:43.990Z,962.16
2023-04-11T04:23:44.009Z,962.41
2023-04-11T04:24:43.994Z,962.51
2023-04-11T04:25:43.988Z,962.80
2023-04-11T04:26:43.989Z,962.46
2023-04-11T04:27:43.987Z,962.54
2023-04-11T04:28:43.931Z,962.47
2023-04-11T04:29:43.950Z,962.52
2023-04-11T04:30:43.922Z,962.66
2023-04-11T04:31:43.935Z,962.72
2023-04-11T04:32:44.004Z,962.74
2023-04-11T04:33:43.887Z,962.72
2023-04-11T04:34:43.856Z,962.77
2023-04-11T04:35:43.899Z,962.81
2023-04-11T04:36:43.856Z,962.78
2023-04-11T04:37:43.846Z,962.95
2023-04-11T04:38:43.851Z,963.01
2023-04-11T04:39:43.865Z,963.09
2023-04-11T04:40:43.791Z,963.05
2023-04-11T04:41:43.807Z,963.05
2023-04-11T04:42:43.805Z,963.02
2023-04-11T04:43:43.799Z,962.97
2023-04-11T04:44:43.767Z,963.07
2023-04-11T04:45:43.799Z,963.13
2023-04-11T04:46:43.756Z,963.20
2023-04-11T04:47:43.753Z,963.31
2023-04-11T04:48:43.727Z,963.34
2023-04-11T04:49:43.715Z,963.27
2023-04-11T04:50:43.694Z,963.31
2023-04-11T04:51:43.703Z,963.37
2023-04-11T04:52:43.693Z,963.52
2023-04-11T04:53:43.685Z,963.51
2023-04-11T04:54:43.691Z,963.59
2023-04-11T04:55:43.651Z,963.55
2023-04-11T04:56:43.646Z,963.48
2023-04-11T04:57:43.636Z,963.58
2023-04-11T04:58:43.626Z,963.61
2023-04-11T04:59:43.630Z,963.68
2023-04-11T05:00:43.637Z,963.79
2023-04-11T05:01:43.670Z,963.64
2023-04-11T05:02:43.738Z,963.68
2023-04-11T05:03:43.656Z,963.72
2023-04-11T05:04:43.563Z,963.74
2023-04-11T05:05:43.552Z,963.62
2023-04-11T05:06:43.537Z,963.58
2023-04-11T05:07:43.519Z,963.54
2023-04-11T05:08:43.529Z,963.72
2023-04-11T05:09:43.490Z,963.72
2023-04-11T05:10:43.473Z,963.69
2023-04-11T05:11:43.483Z,963.65
2023-04-11T05:12:43.454Z,963.77
2023-04-11T05:13:43.445Z,963.70
2023-04-11T05:14:43.453Z,963.62
2023-04-11T05:15:43.427Z,963.72
2023-04-11T05:16:43.436Z,963.90
2023-04-11T05:17:43.531Z,963.89
2023-04-11T05:18:43.386Z,963.82
2023-04-11T05:19:43.410Z,963.98
2023-04-11T05:20:43.370Z,963.99
2023-04-11T05:21:43.360Z,963.94
2023-04-11T05:22:43.371Z,964.00
2023-04-11T05:23:43.330Z,963.98
2023-04-11T05:24:43.345Z,963.98
2023-04-11T05:25:43.291Z,963.93
2023-04-11T05:26:43.316Z,963.94
2023-04-11T05:27:43.315Z,963.91
2023-04-11T05:28:43.291Z,963.99
2023-04-11T05:29:43.283Z,963.96
2023-04-11T05:30:43.325Z,963.92
2023-04-11T05:31:43.269Z,963.95
2023-04-11T05:32:43.291Z,964.00
2023-04-11T05:33:43.250Z,964.00
2023-04-11T05:34:43.220Z,963.97
2023-04-11T05:35:43.239Z,964.06
2023-04-11T05:36:43.179Z,964.05
2023-04-11T05:37:43.221Z,964.12
2023-04-11T05:38:43.201Z,964.14
2023-04-11T05:39:43.212Z,964.12
2023-04-11T05:40:43.136Z,964.09
2023-04-11T05:41:43.155Z,964.09
2023-04-11T05:42:43.152Z,964.22
2023-04-11T05:43:43.168Z,964.20
2023-04-11T05:44:43.110Z,964.16
2023-04-11T05:45:43.144Z,964.20
2023-04-11T05:46:43.124Z,964.20
2023-04-11T05:47:43.138Z,964.17
2023-04-11T05:48:43.077Z,964.08
2023-04-11T05:49:43.128Z,964.03
2023-04-11T05:50:43.179Z,964.01
2023-04-11T05:51:43.054Z,964.02
2023-04-11T05:52:43.038Z,964.09
2023-04-11T05:53:43.020Z,964.20
2023-04-11T05:54:43.003Z,964.21
2023-04-11T05:55:42.993Z,964.18
2023-04-11T05:56:42.997Z,964.18
2023-04-11T05:57:43.011Z,964.16
2023-04-11T05:58:42.929Z,964.20
2023-04-11T05:59:42.978Z,964.27
2023-04-11T06:00:42.947Z,964.34
2023-04-11T06:01:42.987Z,964.37
2023-04-11T06:02:43.127Z,964.36
2023-04-11T06:03:43.037Z,964.37
2023-04-11T06:04:42.977Z,964.36
2023-04-11T06:05:42.895Z,964.31
2023-04-11T06:06:42.869Z,964.31
2023-04-11T06:07:42.879Z,964.37
2023-04-11T06:08:42.887Z,964.34
2023-04-11T06:09:42.886Z,964.34
2023-04-11T06:10:42.820Z,964.37
2023-04-11T06:11:42.811Z,964.37
2023-04-11T06:12:42.806Z,964.41
2023-04-11T06:13:42.781Z,964.45
2023-04-11T06:14:42.789Z,964.45
2023-04-11T06:15:42.759Z,964.45
2023-04-11T06:16:42.756Z,964.40
2023-04-11T06:17:42.799Z,964.42
2023-04-11T06:18:42.725Z,964.49
2023-04-11T06:19:42.701Z,964.46
2023-04-11T06:20:42.740Z,964.51
2023-04-11T06:21:42.715Z,964.48
2023-04-11T06:22:42.687Z,964.44
2023-04-11T06:23:42.669Z,964.40
2023-04-11T06:24:42.680Z,964.39
2023-04-11T06:25:42.645Z,964.39
2023-04-11T06:26:42.659Z,964.39
2023-04-11T06:27:42.664Z,964.47
2023-04-11T06:28:42.625Z,964.45
2023-04-11T06:29:42.613Z,964.48
2023-04-11T06:30:42.618Z,964.40
2023-04-11T06:31:42.705Z,964.38
2023-04-11T06:32:42.673Z,964.39
2023-04-11T06:33:42.577Z,964.42
2023-04-11T06:34:42.580Z,964.48
2023-04-11T06:35:42.574Z,964.57
2023-04-11T06:36:42.644Z,964.54
2023-04-11T06:37:42.558Z,964.48
2023-04-11T06:38:42.551Z,964.61
2023-04-11T06:39:42.513Z,964.55
2023-04-11T06:40:42.506Z,964.47
2023-04-11T06:41:42.484Z,964.43
2023-04-11T06:42:42.511Z,964.41
2023-04-11T06:43:42.453Z,964.44
2023-04-11T06:44:42.520Z,964.49
2023-04-11T06:45:42.454Z,964.48
2023-04-11T06:46:42.471Z,964.52
2023-04-11T06:47:42.439Z,964.58
2023-04-11T06:48:42.415Z,964.61
2023-04-11T06:49:42.403Z,964.63
2023-04-11T06:50:42.399Z,964.59
2023-04-11T06:51:42.373Z,964.67
2023-04-11T06:52:42.369Z,964.66
2023-04-11T06:53:42.335Z,964.62
2023-04-11T06:54:42.352Z,964.52
2023-04-11T06:55:42.321Z,964.52
2023-04-11T06:56:42.307Z,964.51
2023-04-11T06:57:42.321Z,964.53
2023-04-11T06:58:42.288Z,964.55
2023-04-11T06:59:42.284Z,964.61
2023-04-11T07:00:42.267Z,964.54
2023-04-11T07:01:42.323Z,964.61
2023-04-11T07:02:42.434Z,964.54
2023-04-11T07:03:42.496Z,964.56
2023-04-11T07:04:42.316Z,964.58
2023-04-11T07:05:42.211Z,964.52
2023-04-11T07:06:42.201Z,964.48
2023-04-11T07:07:42.187Z,964.52
2023-04-11T07:08:42.222Z,964.55
2023-04-11T07:09:42.172Z,964.56
2023-04-11T07:10:42.180Z,964.57
2023-04-11T07:11:42.154Z,964.60
2023-04-11T07:12:42.119Z,964.59
2023-04-11T07:13:42.127Z,964.64
2023-04-11T07:14:42.116Z,964.68
2023-04-11T07:15:42.119Z,964.66
2023-04-11T07:16:42.104Z,964.63
2023-04-11T07:17:42.146Z,964.63
2023-04-11T07:18:42.084Z,964.69
2023-04-11T07:19:42.088Z,964.50
2023-04-11T07:20:42.090Z,964.52
2023-04-11T07:21:42.065Z,964.40
2023-04-11T07:22:42.041Z,964.42
2023-04-11T07:23:42.025Z,964.50
2023-04-11T07:24:42.015Z,964.58
2023-04-11T07:25:41.988Z,964.56
2023-04-11T07:26:42.010Z,964.49
2023-04-11T07:27:41.956Z,964.60
2023-04-11T07:28:41.940Z,964.56
2023-04-11T07:29:41.954Z,964.52
2023-04-11T07:30:41.937Z,964.62
2023-04-11T07:31:42.034Z,964.60
2023-04-11T07:32:41.946Z,964.67
2023-04-11T07:33:41.898Z,964.66
2023-04-11T07:34:41.916Z,964.63
2023-04-11T07:35:41.896Z,964.73
2023-04-11T07:36:41.858Z,964.73
2023-04-11T07:37:41.859Z,964.70
2023-04-11T07:38:41.859Z,964.68
2023-04-11T07:39:41.808Z,964.76
2023-04-11T07:40:41.827Z,964.82
2023-04-11T07:41:41.839Z,964.77
2023-04-11T07:42:41.808Z,964.86
2023-04-11T07:43:41.778Z,964.86
2023-04-11T07:44:41.788Z,964.85
2023-04-11T07:45:41.826Z,964.80
2023-04-11T07:46:41.762Z,964.76
2023-04-11T07:47:41.765Z,964.82
2023-04-11T07:48:41.744Z,964.79
2023-04-11T07:49:41.702Z,964.78
2023-04-11T07:50:41.730Z,964.83
2023-04-11T07:51:41.717Z,964.93
2023-04-11T07:52:41.702Z,964.84
2023-04-11T07:53:41.682Z,964.91
2023-04-11T07:54:41.644Z,964.80
2023-04-11T07:55:41.650Z,964.76
2023-04-11T07:56:41.660Z,964.79
2023-04-11T07:57:41.644Z,964.83
2023-04-11T07:58:41.637Z,964.88
2023-04-11T07:59:41.605Z,964.94
2023-04-11T08:00:41.624Z,964.88
2023-04-11T08:01:41.637Z,964.88
2023-04-11T08:02:41.725Z,964.82
2023-04-11T08:03:41.692Z,964.91
2023-04-11T08:04:41.712Z,964.93
2023-04-11T08:05:41.521Z,964.92
2023-04-11T08:06:41.567Z,964.88
2023-04-11T08:07:41.541Z,964.87
2023-04-11T08:08:41.513Z,964.94
2023-04-11T08:09:41.519Z,964.84
2023-04-11T08:10:41.521Z,964.78
2023-04-11T08:11:41.501Z,964.84
2023-04-11T08:12:41.491Z,964.81
2023-04-11T08:13:41.455Z,964.87
2023-04-11T08:14:41.462Z,964.87
2023-04-11T08:15:41.437Z,964.83
2023-04-11T08:16:41.467Z,964.84
2023-04-11T08:17:41.545Z,964.80
2023-04-11T08:18:41.391Z,964.74
2023-04-11T08:19:41.369Z,964.82
2023-04-11T08:20:41.366Z,964.86
2023-04-11T08:21:41.373Z,964.85
2023-04-11T08:22:41.388Z,964.85
2023-04-11T08:23:41.333Z,964.89
2023-04-11T08:24:41.346Z,964.90
2023-04-11T08:25:41.347Z,964.92
2023-04-11T08:26:41.327Z,964.89
2023-04-11T08:27:41.315Z,964.87
2023-04-11T08:28:42.961Z,964.87
2023-04-11T08:29:41.289Z,964.96
2023-04-11T08:30:41.332Z,964.95
2023-04-11T08:31:41.258Z,964.96
2023-04-11T08:32:41.384Z,964.99
2023-04-11T08:33:41.231Z,965.00
2023-04-11T08:34:41.247Z,965.01
2023-04-11T08:35:41.233Z,964.97
2023-04-11T08:36:41.211Z,965.03
2023-04-11T08:37:41.210Z,965.04
2023-04-11T08:38:41.183Z,965.04
2023-04-11T08:39:41.169Z,965.05
2023-04-11T08:40:41.163Z,965.04
2023-04-11T08:41:41.164Z,965.03
2023-04-11T08:42:41.362Z,965.05
2023-04-11T08:43:41.146Z,965.04
2023-04-11T08:44:41.098Z,965.10
2023-04-11T08:45:41.229Z,965.06
2023-04-11T08:46:41.086Z,965.12
2023-04-11T08:47:42.565Z,965.13
2023-04-11T08:48:41.066Z,965.05
2023-04-11T08:49:41.061Z,965.10
2023-04-11T08:50:41.042Z,965.02
2023-04-11T08:51:41.028Z,964.93
2023-04-11T08:52:41.655Z,965.05
2023-04-11T08:53:41.021Z,964.99
2023-04-11T08:54:41.003Z,964.97
2023-04-11T08:55:40.994Z,964.93
2023-04-11T08:56:40.994Z,964.95
2023-04-11T08:57:40.992Z,964.96
2023-04-11T08:58:43.470Z,964.87
2023-04-11T08:59:40.939Z,964.93
2023-04-11T09:00:40.905Z,964.87
2023-04-11T09:01:41.190Z,964.88
2023-04-11T09:02:41.010Z,964.86
2023-04-11T09:03:40.907Z,964.87
2023-04-11T09:04:40.907Z,964.84
2023-04-11T09:05:40.877Z,964.92
2023-04-11T09:06:40.882Z,964.95
2023-04-11T09:07:40.863Z,964.91
2023-04-11T09:08:40.869Z,964.96
2023-04-11T09:09:40.973Z,965.00
2023-04-11T09:10:40.820Z,964.92
2023-04-11T09:11:40.803Z,964.94
2023-04-11T09:12:40.816Z,964.95
2023-04-11T09:13:40.816Z,964.92
2023-04-11T09:14:40.800Z,964.94
2023-04-11T09:15:40.786Z,964.94
2023-04-11T09:16:40.764Z,964.93
2023-04-11T09:17:40.810Z,964.91
2023-04-11T09:18:40.737Z,964.91
2023-04-11T09:19:40.734Z,964.88
2023-04-11T09:20:40.719Z,964.87
2023-04-11T09:21:40.700Z,964.94
2023-04-11T09:22:43.048Z,964.97
2023-04-11T09:23:40.717Z,965.00
2023-04-11T09:24:40.669Z,964.97
2023-04-11T09:25:40.649Z,964.95
2023-04-11T09:26:40.660Z,964.96
2023-04-11T09:27:40.646Z,964.88
2023-04-11T09:28:40.634Z,964.88
2023-04-11T09:29:40.600Z,964.93
2023-04-11T09:30:40.610Z,964.85
2023-04-11T09:31:40.745Z,964.86
2023-04-11T09:32:40.606Z,964.93
2023-04-11T09:33:40.577Z,964.81
2023-04-11T09:34:42.338Z,964.83
2023-04-11T09:35:40.546Z,964.86
2023-04-11T09:36:40.542Z,965.02
2023-04-11T09:37:40.505Z,965.05
2023-04-11T09:38:40.518Z,965.10
2023-04-11T09:39:40.504Z,965.06
2023-04-11T09:40:40.501Z,965.14
2023-04-11T09:41:40.506Z,965.07
2023-04-11T09:42:40.472Z,965.08
2023-04-11T09:43:40.445Z,965.13
2023-04-11T09:44:40.465Z,965.04
2023-04-11T09:45:51.622Z,964.96
2023-04-11T09:46:40.470Z,964.92
2023-04-11T09:47:41.794Z,964.97
2023-04-11T09:49:40.384Z,964.97
2023-04-11T09:50:40.402Z,965.00
2023-04-11T09:51:40.333Z,964.92
2023-04-11T09:52:40.367Z,965.02
2023-04-11T09:53:40.346Z,965.03
2023-04-11T09:54:40.330Z,965.01
2023-04-11T09:55:40.310Z,965.00
2023-04-11T09:56:40.281Z,964.92
2023-04-11T09:57:40.306Z,965.00
2023-04-11T09:58:40.294Z,965.04
2023-04-11T09:59:40.272Z,964.92
2023-04-11T10:00:40.278Z,964.93
2023-04-11T10:01:40.297Z,964.93
2023-04-11T10:02:40.379Z,964.91
2023-04-11T10:03:40.341Z,964.92
2023-04-11T10:04:40.243Z,965.01
2023-04-11T10:05:40.215Z,964.98
2023-04-11T10:06:40.184Z,964.90
2023-04-11T10:07:40.192Z,964.82
2023-04-11T10:08:40.185Z,964.87
2023-04-11T10:09:40.163Z,965.02
2023-04-11T10:10:40.163Z,964.89
2023-04-11T10:11:40.131Z,964.91
2023-04-11T10:12:40.120Z,964.98
2023-04-11T10:13:40.144Z,964.98
2023-04-11T10:14:40.110Z,964.93
2023-04-11T10:15:40.107Z,965.08
2023-04-11T10:16:40.123Z,964.98
2023-04-11T10:17:40.121Z,964.99
2023-04-11T10:18:40.082Z,964.94
2023-04-11T10:19:40.063Z,964.95
2023-04-11T10:20:40.049Z,964.97
2023-04-11T10:21:40.036Z,964.94
2023-04-11T10:22:40.008Z,964.92
2023-04-11T10:23:39.999Z,964.96
2023-04-11T10:24:39.998Z,964.96
2023-04-11T10:25:39.992Z,964.96
2023-04-11T10:26:39.978Z,964.91
2023-04-11T10:27:39.969Z,964.87
2023-04-11T10:28:39.947Z,964.81
2023-04-11T10:29:39.956Z,964.78
2023-04-11T10:30:39.961Z,964.78
2023-04-11T10:31:39.965Z,964.83
2023-04-11T10:32:39.977Z,964.82
2023-04-11T10:33:39.916Z,964.83
2023-04-11T10:34:39.897Z,964.87
2023-04-11T10:35:39.909Z,964.85
2023-04-11T10:36:39.869Z,964.75
2023-04-11T10:37:39.856Z,964.75
2023-04-11T10:38:39.848Z,964.74
2023-04-11T10:39:39.829Z,964.73
2023-04-11T10:40:39.853Z,964.78
2023-04-11T10:41:40.530Z,964.73
2023-04-11T10:42:39.787Z,964.86
2023-04-11T10:43:39.794Z,964.90
2023-04-11T10:44:39.744Z,964.88
2023-04-11T10:45:39.783Z,964.85
2023-04-11T10:46:39.833Z,964.89
2023-04-11T10:47:39.784Z,964.82
2023-04-11T10:48:39.702Z,964.86
2023-04-11T10:49:39.738Z,964.91
2023-04-11T10:50:39.716Z,964.95
2023-04-11T10:51:39.714Z,964.94
2023-04-11T10:52:39.695Z,964.86
2023-04-11T10:53:39.708Z,964.85
2023-04-11T10:54:39.639Z,964.85
2023-04-11T10:55:39.665Z,964.77
2023-04-11T10:56:39.645Z,964.83
2023-04-11T10:57:39.634Z,964.82
2023-04-11T10:58:39.667Z,964.85
2023-04-11T10:59:39.610Z,964.79
2023-04-11T11:00:39.591Z,964.73
2023-04-11T11:02:40.108Z,964.88
2023-04-11T11:03:39.630Z,964.88
2023-04-11T11:04:39.669Z,964.85
2023-04-11T11:05:40.071Z,964.82
2023-04-11T11:06:47.212Z,964.80
2023-04-11T11:07:39.512Z,964.82
2023-04-11T11:08:39.520Z,964.79
2023-04-11T11:09:39.489Z,964.83
2023-04-11T11:10:39.495Z,964.91
2023-04-11T11:11:39.465Z,964.73
2023-04-11T11:12:39.458Z,964.83
2023-04-11T11:13:39.450Z,964.87
2023-04-11T11:14:39.465Z,964.88
2023-04-11T11:15:39.453Z,964.87
2023-04-11T11:16:39.436Z,964.81
2023-04-11T11:17:39.448Z,964.87
2023-04-11T11:18:39.396Z,964.82
2023-04-11T11:19:39.376Z,964.83
2023-04-11T11:20:39.370Z,964.88
2023-04-11T11:21:39.374Z,964.86
2023-04-11T11:22:39.421Z,964.88
2023-04-11T11:23:39.308Z,964.98
2023-04-11T11:24:39.314Z,964.96
2023-04-11T11:25:39.331Z,964.96
2023-04-11T11:26:39.303Z,964.92
2023-04-11T11:27:39.268Z,964.88
2023-04-11T11:28:39.300Z,964.93
2023-04-11T11:29:39.267Z,964.98
2023-04-11T11:30:39.230Z,964.95
2023-04-11T11:31:39.308Z,964.93
2023-04-11T11:32:39.265Z,965.00
2023-04-11T11:33:39.235Z,964.94
2023-04-11T11:34:39.231Z,964.92
2023-04-11T11:35:39.221Z,964.97
2023-04-11T11:36:39.241Z,964.90
2023-04-11T11:37:39.185Z,964.95
2023-04-11T11:38:39.154Z,964.91
2023-04-11T11:39:39.166Z,964.89
2023-04-11T11:40:39.137Z,964.96
2023-04-11T11:41:39.148Z,964.97
2023-04-11T11:42:39.112Z,964.77
2023-04-11T11:43:39.104Z,964.85
2023-04-11T11:44:39.103Z,964.83
2023-04-11T11:45:39.102Z,964.84
2023-04-11T11:46:39.186Z,964.95
2023-04-11T11:47:39.097Z,965.00
2023-04-11T11:48:39.058Z,964.89
2023-04-11T11:49:39.046Z,964.90
2023-04-11T11:50:39.030Z,964.89
2023-04-11T11:51:39.042Z,964.92
2023-04-11T11:52:38.980Z,964.98
2023-04-11T11:53:39.004Z,964.94
2023-04-11T11:54:39.004Z,964.98
2023-04-11T11:55:38.992Z,964.95
2023-04-11T11:56:38.953Z,965.04
2023-04-11T11:57:38.966Z,965.02
2023-04-11T11:58:38.943Z,964.99
2023-04-11T11:59:38.959Z,964.99
2023-04-11T12:00:38.946Z,965.01
2023-04-11T12:01:38.941Z,964.93
2023-04-11T12:02:39.170Z,965.09
2023-04-11T12:03:38.982Z,964.99
2023-04-11T12:04:39.073Z,964.93
2023-04-11T12:05:38.906Z,964.95
2023-04-11T12:06:38.849Z,964.98
2023-04-11T12:07:38.888Z,964.84
2023-04-11T12:08:38.833Z,964.89
2023-04-11T12:09:38.835Z,964.92
2023-04-11T12:10:38.816Z,964.84
2023-04-11T12:11:38.829Z,964.82
2023-04-11T12:12:38.793Z,964.90
2023-04-11T12:13:38.776Z,964.91
2023-04-11T12:14:38.773Z,964.90
2023-04-11T12:15:38.845Z,964.95
2023-04-11T12:16:38.743Z,964.91
2023-04-11T12:17:38.790Z,964.92
2023-04-11T12:18:38.731Z,964.77
2023-04-11T12:19:38.701Z,964.85
2023-04-11T12:20:38.692Z,964.82
2023-04-11T12:21:38.685Z,964.82
2023-04-11T12:22:38.693Z,964.88
2023-04-11T12:23:38.682Z,964.88
2023-04-11T12:24:38.663Z,964.77
2023-04-11T12:25:38.616Z,964.91
2023-04-11T12:26:45.561Z,964.93
2023-04-11T12:27:38.625Z,965.00
2023-04-11T12:28:38.617Z,965.03
2023-04-11T12:29:38.591Z,964.95
2023-04-11T12:30:38.606Z,964.95